createdAt,value
2022-10-05T00:01:32.366Z,23.00
2022-10-05T00:04:13.719Z,23.00
2022-10-05T00:06:43.977Z,23.00
2022-10-05T00:09:17.671Z,23.00
2022-10-05T00:11:47.286Z,23.00
2022-10-05T00:14:21.910Z,23.00
2022-10-05T00:16:51.482Z,22.90
2022-10-05T00:19:25.544Z,22.90
2022-10-05T00:21:57.427Z,22.90
2022-10-05T00:24:26.699Z,22.90
2022-10-05T00:26:58.239Z,22.90
2022-10-05T00:29:27.725Z,22.90
2022-10-05T00:31:56.908Z,22.90
2022-10-05T00:34:29.252Z,22.90
2022-10-05T00:36:59.641Z,22.90
2022-10-05T00:39:30.125Z,22.90
2022-10-05T00:42:19.167Z,22.90
2022-10-05T00:44:53.720Z,22.90
2022-10-05T00:47:38.453Z,22.90
2022-10-05T00:50:23.505Z,22.90
2022-10-05T00:53:01.835Z,22.90
2022-10-05T00:55:43.936Z,22.90
2022-10-05T00:58:23.777Z,22.90
2022-10-05T01:01:00.602Z,22.80
2022-10-05T01:03:41.214Z,22.80
2022-10-05T01:06:22.649Z,22.80
2022-10-05T01:08:59.580Z,22.80
2022-10-05T01:11:33.787Z,22.80
2022-10-05T01:14:09.079Z,22.80
2022-10-05T01:16:47.929Z,22.80
2022-10-05T01:19:44.940Z,22.80
2022-10-05T01:22:28.523Z,22.80
2022-10-05T01:25:13.925Z,22.80
2022-10-05T01:27:58.033Z,22.80
2022-10-05T01:30:27.451Z,22.80
2022-10-05T01:33:02.893Z,22.70
2022-10-05T01:35:41.147Z,22.70
2022-10-05T01:38:21.793Z,22.70
2022-10-05T01:41:00.423Z,22.70
2022-10-05T01:43:39.286Z,22.70
2022-10-05T01:46:22.111Z,22.70
2022-10-05T01:49:01.208Z,22.70
2022-10-05T01:51:39.427Z,22.70
2022-10-05T01:54:18.725Z,22.70
2022-10-05T01:56:56.814Z,22.70
2022-10-05T01:59:38.556Z,22.60
2022-10-05T02:02:13.124Z,22.60
2022-10-05T02:05:03.590Z,22.60
2022-10-05T02:07:40.091Z,22.60
2022-10-05T02:10:19.220Z,22.60
2022-10-05T02:12:52.680Z,22.60
2022-10-05T02:15:28.599Z,22.60
2022-10-05T02:18:03.578Z,22.60
2022-10-05T02:20:35.869Z,22.60
2022-10-05T02:23:10.341Z,22.60
2022-10-05T02:25:43.084Z,22.60
2022-10-05T02:28:14.694Z,22.60
2022-10-05T02:30:51.661Z,22.60
2022-10-05T02:33:28.558Z,22.60
2022-10-05T02:36:03.239Z,22.60
2022-10-05T02:38:44.941Z,22.50
2022-10-05T02:41:24.908Z,22.50
2022-10-05T02:44:02.898Z,22.50
2022-10-05T02:46:43.215Z,22.50
2022-10-05T02:49:22.158Z,22.50
2022-10-05T02:51:58.265Z,22.50
2022-10-05T02:54:40.914Z,22.50
2022-10-05T02:57:21.231Z,22.50
2022-10-05T02:59:56.617Z,22.50
2022-10-05T03:02:31.883Z,22.50
2022-10-05T03:05:11.826Z,22.50
2022-10-05T03:07:49.716Z,22.50
2022-10-05T03:10:29.949Z,22.40
2022-10-05T03:13:06.917Z,22.40
2022-10-05T03:16:15.308Z,22.40
2022-10-05T03:18:57.649Z,22.40
2022-10-05T03:21:42.488Z,22.40
2022-10-05T03:24:36.938Z,22.40
2022-10-05T03:27:17.951Z,22.40
2022-10-05T03:29:52.018Z,22.40
2022-10-05T03:32:29.736Z,22.40
2022-10-05T03:35:08.139Z,22.40
2022-10-05T03:37:49.507Z,22.40
2022-10-05T03:40:28.448Z,22.40
2022-10-05T03:43:07.497Z,22.40
2022-10-05T03:45:43.594Z,22.30
2022-10-05T03:48:17.078Z,22.30
2022-10-05T03:51:00.379Z,22.30
2022-10-05T03:53:33.641Z,22.30
2022-10-05T03:56:08.140Z,22.30
2022-10-05T03:58:43.562Z,22.30
2022-10-05T04:01:18.571Z,22.30
2022-10-05T04:03:52.219Z,22.30
2022-10-05T04:06:26.972Z,22.30
2022-10-05T04:09:00.649Z,22.30
2022-10-05T04:11:35.189Z,22.30
2022-10-05T04:14:08.656Z,22.30
2022-10-05T04:16:44.877Z,22.20
2022-10-05T04:19:20.615Z,22.20
2022-10-05T04:21:54.729Z,22.20
2022-10-05T04:24:31.575Z,22.20
2022-10-05T04:27:04.565Z,22.30
2022-10-05T04:29:39.965Z,22.20
2022-10-05T04:32:30.731Z,22.20
2022-10-05T04:35:28.164Z,22.20
2022-10-05T04:38:09.656Z,22.20
2022-10-05T04:40:51.267Z,22.20
2022-10-05T04:43:27.146Z,22.20
2022-10-05T04:46:17.592Z,22.20
2022-10-05T04:49:00.040Z,22.20
2022-10-05T04:51:39.193Z,22.20
2022-10-05T04:54:24.204Z,22.20
2022-10-05T04:56:58.243Z,22.20
2022-10-05T04:59:53.729Z,22.10
2022-10-05T05:02:36.640Z,22.20
2022-10-05T05:05:29.074Z,22.10
2022-10-05T05:08:11.695Z,22.10
2022-10-05T05:11:15.908Z,22.20
2022-10-05T05:14:26.954Z,22.20
2022-10-05T05:17:13.114Z,22.30
2022-10-05T05:19:53.033Z,22.30
2022-10-05T05:22:30.362Z,22.40
2022-10-05T05:25:19.111Z,22.40
2022-10-05T05:27:55.779Z,22.50
2022-10-05T05:30:36.842Z,22.50
2022-10-05T05:33:19.429Z,22.50
2022-10-05T05:36:23.198Z,22.60
2022-10-05T05:39:09.680Z,22.60
2022-10-05T05:41:40.926Z,22.60
2022-10-05T05:44:23.871Z,22.70
2022-10-05T05:47:04.118Z,22.70
2022-10-05T05:49:51.141Z,22.70
2022-10-05T05:52:25.536Z,22.80
2022-10-05T05:54:59.709Z,22.80
2022-10-05T05:57:33.899Z,22.80
2022-10-05T06:00:08.901Z,22.80
2022-10-05T06:02:56.512Z,22.80
2022-10-05T06:05:32.662Z,22.90
2022-10-05T06:08:14.849Z,22.90
2022-10-05T06:10:50.879Z,22.90
2022-10-05T06:13:25.657Z,22.90
2022-10-05T06:16:06.513Z,22.90
2022-10-05T06:18:38.631Z,22.90
2022-10-05T06:21:18.253Z,22.90
2022-10-05T06:23:54.295Z,23.00
2022-10-05T06:26:38.708Z,23.00
2022-10-05T06:29:14.690Z,23.00
2022-10-05T06:32:04.102Z,23.00
2022-10-05T06:34:53.041Z,23.00
2022-10-05T06:37:38.118Z,23.00
2022-10-05T06:40:20.919Z,23.00
2022-10-05T06:43:07.095Z,23.00
2022-10-05T06:45:53.352Z,23.00
2022-10-05T06:48:47.643Z,23.10
2022-10-05T06:51:49.666Z,23.10
2022-10-05T06:54:36.869Z,23.10
2022-10-05T06:57:14.726Z,23.10
2022-10-05T06:59:51.939Z,23.10
2022-10-05T07:02:27.426Z,23.10
2022-10-05T07:05:32.494Z,23.10
2022-10-05T07:08:06.283Z,23.10
2022-10-05T07:10:44.295Z,23.10
2022-10-05T07:13:30.134Z,23.10
2022-10-05T07:16:06.747Z,23.10
2022-10-05T07:18:49.741Z,23.10
2022-10-05T07:21:35.787Z,23.10
2022-10-05T07:24:15.726Z,23.10
2022-10-05T07:26:47.659Z,23.10
2022-10-05T07:29:30.535Z,23.10
2022-10-05T07:32:08.845Z,23.10
2022-10-05T07:34:49.180Z,23.10
2022-10-05T07:37:42.944Z,23.10
2022-10-05T07:40:19.575Z,23.10
2022-10-05T07:43:15.263Z,23.10
2022-10-05T07:45:49.248Z,23.10
2022-10-05T07:48:22.506Z,23.10
2022-10-05T07:51:04.491Z,23.10
2022-10-05T07:53:39.620Z,23.20
2022-10-05T07:56:17.331Z,23.20
2022-10-05T07:58:50.570Z,23.20
2022-10-05T08:01:25.478Z,23.20
2022-10-05T08:04:04.120Z,23.10
2022-10-05T08:09:40.291Z,23.10
2022-10-05T08:12:21.577Z,23.10
2022-10-05T08:14:57.304Z,23.10
2022-10-05T08:17:34.242Z,23.10
2022-10-05T08:20:17.719Z,23.10
2022-10-05T08:22:53.811Z,23.10
2022-10-05T08:25:27.919Z,23.10
2022-10-05T08:28:05.288Z,23.10
2022-10-05T08:30:41.261Z,23.10
2022-10-05T08:33:16.060Z,23.10
2022-10-05T08:35:47.523Z,23.10
2022-10-05T08:38:18.910Z,23.10
2022-10-05T08:41:38.783Z,23.10
2022-10-05T08:44:49.528Z,23.10
2022-10-05T08:47:34.063Z,23.10
2022-10-05T08:50:26.611Z,23.00
2022-10-05T08:53:33.036Z,23.00
2022-10-05T08:56:28.977Z,23.00
2022-10-05T08:59:23.153Z,23.00
2022-10-05T09:02:16.224Z,23.00
2022-10-05T09:05:12.665Z,23.00
2022-10-05T09:08:07.380Z,23.00
2022-10-05T09:11:08.639Z,23.00
2022-10-05T09:14:07.750Z,23.00
2022-10-05T09:17:11.892Z,23.00
2022-10-05T09:20:18.317Z,23.00
2022-10-05T09:23:00.305Z,23.00
2022-10-05T09:25:44.569Z,23.00
2022-10-05T09:28:25.970Z,23.00
2022-10-05T09:31:11.186Z,23.00
2022-10-05T09:34:07.873Z,23.00
2022-10-05T09:37:23.063Z,23.00
2022-10-05T09:40:42.010Z,23.00
2022-10-05T09:43:40.659Z,23.00
2022-10-05T09:46:45.973Z,23.00
2022-10-05T09:49:59.927Z,23.00
2022-10-05T09:52:55.037Z,23.00
2022-10-05T09:56:07.009Z,23.00
2022-10-05T09:59:09.332Z,23.00
2022-10-05T10:02:05.728Z,23.00
2022-10-05T10:05:05.885Z,23.00
2022-10-05T10:08:00.674Z,23.00
2022-10-05T10:10:55.863Z,23.00
2022-10-05T10:14:00.261Z,23.00
2022-10-05T10:17:08.224Z,23.00
2022-10-05T10:20:03.691Z,23.00
2022-10-05T10:23:11.279Z,23.00
2022-10-05T10:26:17.520Z,23.00
2022-10-05T10:29:15.002Z,23.00
2022-10-05T10:32:09.839Z,23.00
2022-10-05T10:35:15.707Z,23.00
2022-10-05T10:38:22.366Z,23.00
2022-10-05T10:41:20.714Z,23.00
2022-10-05T10:44:41.146Z,23.00
2022-10-05T10:47:32.295Z,23.00
2022-10-05T10:50:42.287Z,23.00
2022-10-05T10:53:34.413Z,23.00
2022-10-05T10:56:24.127Z,23.00
2022-10-05T10:59:09.364Z,23.00
2022-10-05T11:01:46.858Z,23.00
2022-10-05T11:04:58.586Z,23.00
2022-10-05T11:08:00.661Z,23.10
2022-10-05T11:10:59.823Z,23.00
2022-10-05T11:14:02.850Z,23.00
2022-10-05T11:17:04.316Z,23.00
2022-10-05T11:20:04.509Z,23.00
2022-10-05T11:22:57.584Z,23.00
2022-10-05T11:25:48.386Z,23.00
2022-10-05T11:28:52.769Z,23.10
2022-10-05T11:32:00.003Z,23.10
2022-10-05T11:35:00.491Z,23.10
2022-10-05T11:37:56.360Z,23.10
2022-10-05T11:40:50.078Z,23.10
2022-10-05T11:43:53.836Z,23.10
2022-10-05T11:46:29.193Z,23.10
2022-10-05T11:49:16.736Z,23.10
2022-10-05T11:51:54.780Z,23.10
2022-10-05T11:55:09.883Z,23.10
2022-10-05T11:57:49.794Z,23.10
2022-10-05T12:00:21.427Z,23.00
2022-10-05T12:06:13.276Z,23.10
2022-10-05T12:08:55.474Z,23.00
2022-10-05T12:11:43.591Z,23.10
2022-10-05T12:14:22.371Z,23.10
2022-10-05T12:17:00.485Z,23.10
2022-10-05T12:19:36.761Z,23.10
2022-10-05T12:22:17.382Z,23.10
2022-10-05T12:25:06.770Z,23.10
2022-10-05T12:27:41.852Z,23.10
2022-10-05T12:30:17.244Z,23.10
2022-10-05T12:32:55.881Z,23.10
2022-10-05T12:35:47.750Z,23.10
2022-10-05T12:38:28.686Z,23.10
2022-10-05T12:41:09.248Z,23.10
2022-10-05T12:43:49.947Z,23.10
2022-10-05T12:46:29.030Z,23.10
2022-10-05T12:49:17.725Z,23.10
2022-10-05T12:51:53.951Z,23.10
2022-10-05T12:54:31.736Z,23.10
2022-10-05T12:57:07.058Z,23.10
2022-10-05T12:59:43.729Z,23.10
2022-10-05T13:02:26.171Z,23.10
2022-10-05T13:05:08.669Z,23.10
2022-10-05T13:07:51.105Z,23.10
2022-10-05T13:10:32.589Z,23.10
2022-10-05T13:13:24.984Z,23.10
2022-10-05T13:16:01.576Z,23.10
2022-10-05T13:18:38.711Z,23.10
2022-10-05T13:21:14.206Z,23.10
2022-10-05T13:23:57.111Z,23.10
2022-10-05T13:26:34.011Z,23.10
2022-10-05T13:29:14.354Z,23.10
2022-10-05T13:31:49.640Z,23.10
2022-10-05T13:34:29.500Z,23.10
2022-10-05T13:37:13.303Z,23.10
2022-10-05T13:39:55.763Z,23.10
2022-10-05T13:42:33.871Z,23.10
2022-10-05T13:45:11.929Z,23.10
2022-10-05T13:47:55.604Z,23.10
2022-10-05T13:50:32.691Z,23.20
2022-10-05T13:53:13.886Z,23.10
2022-10-05T13:55:48.553Z,23.10
2022-10-05T13:58:28.213Z,23.10
2022-10-05T14:01:01.527Z,23.10
2022-10-05T14:03:35.214Z,23.10
2022-10-05T14:06:12.048Z,23.10
2022-10-05T14:08:52.126Z,23.10
2022-10-05T14:11:31.414Z,23.10
2022-10-05T14:14:13.751Z,23.10
2022-10-05T14:16:52.174Z,23.10
2022-10-05T14:19:28.146Z,23.10
2022-10-05T14:22:02.352Z,23.10
2022-10-05T14:24:44.235Z,23.10
2022-10-05T14:27:22.353Z,23.10
2022-10-05T14:29:59.920Z,23.10
2022-10-05T14:32:33.075Z,23.10
2022-10-05T14:35:15.832Z,23.10
2022-10-05T14:37:50.528Z,23.10
2022-10-05T14:40:26.208Z,23.10
2022-10-05T14:42:56.369Z,23.10
2022-10-05T14:45:29.282Z,23.00
2022-10-05T14:48:11.645Z,23.10
2022-10-05T14:50:55.183Z,23.10
2022-10-05T14:53:26.508Z,23.10
2022-10-05T14:56:32.394Z,23.10
2022-10-05T14:59:23.820Z,23.10
2022-10-05T15:01:58.963Z,23.10
2022-10-05T15:04:43.051Z,23.10
2022-10-05T15:07:24.477Z,23.10
2022-10-05T15:10:05.419Z,23.10
2022-10-05T15:12:36.943Z,23.10
2022-10-05T15:15:19.136Z,23.10
2022-10-05T15:17:53.895Z,23.10
2022-10-05T15:20:28.015Z,23.10
2022-10-05T15:23:08.615Z,23.10
2022-10-05T15:25:48.521Z,23.10
2022-10-05T15:28:26.324Z,23.10
2022-10-05T15:31:03.038Z,23.10
2022-10-05T15:33:38.256Z,23.10
2022-10-05T15:36:13.274Z,23.10
2022-10-05T15:39:00.200Z,23.10
2022-10-05T15:41:53.281Z,23.10
2022-10-05T15:44:30.647Z,23.10
2022-10-05T15:47:07.343Z,23.10
2022-10-05T15:49:44.162Z,23.10
2022-10-05T15:52:22.880Z,23.10
2022-10-05T15:55:24.455Z,23.10
2022-10-05T15:58:08.677Z,23.10
2022-10-05T16:00:44.478Z,23.10
2022-10-05T16:03:23.766Z,23.10
2022-10-05T16:09:08.178Z,23.10
2022-10-05T16:11:54.649Z,23.10
2022-10-05T16:14:38.457Z,23.10
2022-10-05T16:17:25.735Z,23.10
2022-10-05T16:20:15.248Z,23.10
2022-10-05T16:22:51.538Z,23.10
2022-10-05T16:25:23.744Z,23.10
2022-10-05T16:28:08.587Z,23.10
2022-10-05T16:30:51.911Z,23.10
2022-10-05T16:33:29.467Z,23.10
2022-10-05T16:36:07.879Z,23.10
2022-10-05T16:38:46.569Z,23.10
2022-10-05T16:41:21.470Z,23.10
2022-10-05T16:43:56.392Z,23.10
2022-10-05T16:46:33.501Z,23.10
2022-10-05T16:49:17.638Z,23.10
2022-10-05T16:51:57.869Z,23.10
2022-10-05T16:54:32.889Z,23.10
2022-10-05T16:57:08.113Z,23.10
2022-10-05T17:00:01.929Z,23.10
2022-10-05T17:02:47.815Z,23.10
2022-10-05T17:05:31.665Z,23.10
2022-10-05T17:08:15.240Z,23.10
2022-10-05T17:11:06.713Z,23.00
2022-10-05T17:13:57.861Z,23.00
2022-10-05T17:16:38.943Z,23.00
2022-10-05T17:19:29.104Z,23.00
2022-10-05T17:22:00.865Z,23.00
2022-10-05T17:24:46.459Z,23.00
2022-10-05T17:27:24.956Z,23.00
2022-10-05T17:29:55.535Z,23.00
2022-10-05T17:32:39.685Z,23.00
2022-10-05T17:35:19.141Z,23.10
2022-10-05T17:38:17.311Z,23.00
2022-10-05T17:41:11.676Z,23.00
2022-10-05T17:43:41.381Z,23.00
2022-10-05T17:46:12.384Z,23.00
2022-10-05T17:49:12.933Z,23.00
2022-10-05T17:52:22.288Z,23.00
2022-10-05T17:55:30.749Z,23.00
2022-10-05T17:58:04.325Z,23.00
2022-10-05T18:00:50.666Z,23.00
2022-10-05T18:03:42.252Z,23.00
2022-10-05T18:06:41.861Z,23.00
2022-10-05T18:09:35.015Z,23.10
2022-10-05T18:12:27.544Z,23.10
2022-10-05T18:15:02.747Z,23.10
2022-10-05T18:17:43.979Z,23.10
2022-10-05T18:20:32.014Z,23.10
2022-10-05T18:23:35.959Z,23.10
2022-10-05T18:26:21.588Z,23.10
2022-10-05T18:29:14.033Z,23.10
2022-10-05T18:31:51.450Z,23.10
2022-10-05T18:34:31.828Z,23.10
2022-10-05T18:37:13.164Z,23.10
2022-10-05T18:39:55.645Z,23.10
2022-10-05T18:42:33.086Z,23.20
2022-10-05T18:45:16.781Z,23.20
2022-10-05T18:47:54.558Z,23.20
2022-10-05T18:50:31.038Z,23.20
2022-10-05T18:53:13.463Z,23.20
2022-10-05T18:55:50.096Z,23.20
2022-10-05T18:58:27.138Z,23.20
2022-10-05T19:03:58.765Z,23.20
2022-10-05T19:06:31.327Z,23.20
2022-10-05T19:09:15.763Z,23.20
2022-10-05T19:11:55.106Z,23.20
2022-10-05T19:14:34.583Z,23.20
2022-10-05T19:17:23.470Z,23.20
2022-10-05T19:20:13.463Z,23.20
2022-10-05T19:23:23.986Z,23.20
2022-10-05T19:25:58.838Z,23.10
2022-10-05T19:28:35.684Z,23.10
2022-10-05T19:31:27.594Z,23.10
2022-10-05T19:34:16.586Z,23.10
2022-10-05T19:36:58.433Z,23.10
2022-10-05T19:39:38.815Z,23.10
2022-10-05T19:42:29.808Z,23.10
2022-10-05T19:45:11.257Z,23.10
2022-10-05T19:47:53.588Z,23.10
2022-10-05T19:50:32.981Z,23.10
2022-10-05T19:53:10.431Z,23.10
2022-10-05T19:55:43.776Z,23.10
2022-10-05T19:58:21.751Z,23.10
2022-10-05T20:01:00.099Z,23.10
2022-10-05T20:03:31.099Z,23.10
2022-10-05T20:06:02.441Z,23.10
2022-10-05T20:08:40.645Z,23.10
2022-10-05T20:11:14.858Z,23.10
2022-10-05T20:13:46.800Z,23.10
2022-10-05T20:16:48.270Z,23.10
2022-10-05T20:19:46.864Z,23.10
2022-10-05T20:22:36.128Z,23.10
2022-10-05T20:25:07.884Z,23.10
2022-10-05T20:27:48.698Z,23.10
2022-10-05T20:30:20.223Z,23.10
2022-10-05T20:32:51.394Z,23.10
2022-10-05T20:35:22.541Z,23.00
2022-10-05T20:37:51.852Z,23.00
2022-10-05T20:40:21.612Z,23.00
2022-10-05T20:42:51.777Z,23.00
2022-10-05T20:45:20.879Z,23.00
2022-10-05T20:47:51.438Z,23.00
2022-10-05T20:50:22.313Z,23.00
2022-10-05T20:52:51.529Z,23.00
2022-10-05T20:55:21.195Z,23.00
2022-10-05T20:57:50.465Z,23.00
2022-10-05T21:00:19.861Z,23.00
2022-10-05T21:02:50.589Z,23.00
2022-10-05T21:05:19.950Z,23.00
2022-10-05T21:07:49.109Z,23.00
2022-10-05T21:10:18.735Z,23.00
2022-10-05T21:12:47.865Z,23.00
2022-10-05T21:15:17.098Z,23.00
2022-10-05T21:17:46.314Z,23.00
2022-10-05T21:20:17.147Z,23.00
2022-10-05T21:22:46.320Z,23.00
2022-10-05T21:25:15.597Z,23.00
2022-10-05T21:27:44.706Z,23.00
2022-10-05T21:30:14.380Z,23.00
2022-10-05T21:32:44.836Z,23.00
2022-10-05T21:35:14.151Z,23.00
2022-10-05T21:37:44.773Z,22.90
2022-10-05T21:40:13.934Z,22.90
2022-10-05T21:42:43.098Z,22.90
2022-10-05T21:45:12.604Z,22.90
2022-10-05T21:47:42.204Z,22.90
2022-10-05T21:50:11.861Z,22.90
2022-10-05T21:52:41.105Z,22.90
2022-10-05T21:55:12.498Z,22.90
2022-10-05T21:57:42.379Z,22.90
2022-10-05T22:00:14.160Z,22.90
2022-10-05T22:02:43.383Z,22.90
2022-10-05T22:05:12.550Z,22.90
2022-10-05T22:07:41.877Z,22.90
2022-10-05T22:10:12.515Z,22.90
2022-10-05T22:12:43.576Z,22.90
2022-10-05T22:15:12.807Z,22.90
2022-10-05T22:17:42.502Z,22.90
2022-10-05T22:20:14.161Z,22.90
2022-10-05T22:22:43.300Z,22.90
2022-10-05T22:25:13.926Z,22.90
2022-10-05T22:27:43.332Z,22.90
2022-10-05T22:30:14.930Z,22.90
2022-10-05T22:32:44.669Z,22.90
2022-10-05T22:35:14.432Z,22.90
2022-10-05T22:37:43.578Z,22.80
2022-10-05T22:40:14.131Z,22.80
2022-10-05T22:42:43.399Z,22.80
2022-10-05T22:45:12.512Z,22.80
2022-10-05T22:47:42.790Z,22.80
2022-10-05T22:50:12.136Z,22.80
2022-10-05T22:52:42.517Z,22.80
2022-10-05T22:55:13.238Z,22.80
2022-10-05T22:57:43.499Z,22.80
2022-10-05T23:00:14.492Z,22.80
2022-10-05T23:02:45.080Z,22.80
2022-10-05T23:05:17.235Z,22.80
2022-10-05T23:07:47.813Z,22.80
2022-10-05T23:10:20.040Z,22.80
2022-10-05T23:13:00.607Z,22.80
2022-10-05T23:15:30.325Z,22.80
2022-10-05T23:17:59.449Z,22.80
2022-10-05T23:20:28.859Z,22.80
2022-10-05T23:22:58.065Z,22.80
2022-10-05T23:25:28.611Z,22.80
2022-10-05T23:27:57.808Z,22.70
2022-10-05T23:30:27.134Z,22.70
2022-10-05T23:32:56.738Z,22.70
2022-10-05T23:35:25.952Z,22.70
2022-10-05T23:37:55.094Z,22.70
2022-10-05T23:40:24.255Z,22.70
2022-10-05T23:42:54.847Z,22.70
2022-10-05T23:45:23.983Z,22.70
2022-10-05T23:47:53.237Z,22.70
2022-10-05T23:50:25.144Z,22.70
2022-10-05T23:52:54.288Z,22.70
2022-10-05T23:55:23.370Z,22.70
2022-10-05T23:57:52.540Z,22.70
